createdAt,value
2022-08-05T00:01:28.124Z,1005.44
2022-08-05T00:06:32.399Z,1005.40
2022-08-05T00:11:34.901Z,1005.39
2022-08-05T00:16:35.685Z,1005.35
2022-08-05T00:21:30.763Z,1005.30
2022-08-05T00:26:31.037Z,1005.29
2022-08-05T00:31:54.131Z,1005.29
2022-08-05T00:37:10.486Z,1005.31
2022-08-05T00:41:51.975Z,1005.33
2022-08-05T00:46:36.966Z,1005.32
2022-08-05T00:51:51.238Z,1005.30
2022-08-05T00:56:34.947Z,1005.32
2022-08-05T01:01:42.862Z,1005.40
2022-08-05T01:06:36.210Z,1005.63
2022-08-05T01:11:37.355Z,1005.50
2022-08-05T01:16:36.273Z,1005.61
2022-08-05T01:21:38.300Z,1005.70
2022-08-05T01:26:37.760Z,1005.80
2022-08-05T01:31:44.724Z,1005.68
2022-08-05T01:36:42.122Z,1005.62
2022-08-05T01:41:40.808Z,1005.87
2022-08-05T01:46:42.487Z,1005.65
2022-08-05T01:51:42.184Z,1005.78
2022-08-05T01:58:11.777Z,1005.75
2022-08-05T02:01:43.468Z,1005.60
2022-08-05T02:06:45.145Z,1005.62
2022-08-05T02:11:47.762Z,1005.59
2022-08-05T02:16:45.510Z,1005.50
2022-08-05T02:21:46.834Z,1005.59
2022-08-05T02:26:51.911Z,1005.54
2022-08-05T02:31:47.452Z,1005.56
2022-08-05T02:36:47.214Z,1005.58
2022-08-05T02:42:01.010Z,1005.65
2022-08-05T02:46:58.741Z,1005.69
2022-08-05T02:52:03.965Z,1005.64
2022-08-05T02:56:50.624Z,1005.62
2022-08-05T03:01:50.485Z,1005.59
2022-08-05T03:06:54.726Z,1005.63
2022-08-05T03:11:55.693Z,1005.52
2022-08-05T03:16:53.457Z,1005.44
2022-08-05T03:21:52.680Z,1005.32
2022-08-05T03:26:53.456Z,1005.26
2022-08-05T03:31:56.824Z,1005.28
2022-08-05T03:36:54.887Z,1005.26
2022-08-05T03:41:56.330Z,1005.37
2022-08-05T03:46:56.236Z,1005.34
2022-08-05T03:52:37.773Z,1005.36
2022-08-05T03:56:59.874Z,1005.43
2022-08-05T04:02:05.325Z,1005.48
2022-08-05T04:06:59.274Z,1005.53
2022-08-05T04:11:59.968Z,1005.54
2022-08-05T04:17:00.828Z,1005.48
2022-08-05T04:22:09.577Z,1005.45
2022-08-05T04:27:02.813Z,1005.51
2022-08-05T04:32:02.505Z,1005.58
2022-08-05T04:37:03.466Z,1005.61
2022-08-05T04:42:04.181Z,1005.69
2022-08-05T04:47:09.544Z,1005.70
2022-08-05T04:52:06.429Z,1005.70
2022-08-05T04:57:06.010Z,1005.62
2022-08-05T05:02:37.630Z,1005.60
2022-08-05T05:07:09.344Z,1005.58
2022-08-05T05:12:07.793Z,1005.65
2022-08-05T05:17:09.425Z,1005.76
2022-08-05T05:22:24.576Z,1005.82
2022-08-05T05:27:10.847Z,1005.92
2022-08-05T05:32:12.439Z,1006.10
2022-08-05T05:37:12.162Z,1006.40
2022-08-05T05:42:12.134Z,1006.56
2022-08-05T05:47:13.336Z,1006.46
2022-08-05T05:52:28.602Z,1006.42
2022-08-05T05:57:19.154Z,1006.52
2022-08-05T06:02:15.510Z,1006.82
2022-08-05T06:07:15.027Z,1007.01
2022-08-05T06:12:15.728Z,1006.92
2022-08-05T06:17:22.109Z,1006.98
2022-08-05T06:22:18.211Z,1007.09
2022-08-05T06:28:11.536Z,1007.21
2022-08-05T06:32:25.214Z,1007.20
2022-08-05T06:37:55.666Z,1007.11
2022-08-05T06:42:20.606Z,1007.00
2022-08-05T06:47:29.962Z,1007.02
2022-08-05T06:52:37.701Z,1007.05
2022-08-05T06:58:02.965Z,1007.05
2022-08-05T07:02:22.993Z,1006.92
2022-08-05T07:07:24.247Z,1006.92
2022-08-05T07:12:24.296Z,1006.97
2022-08-05T07:18:01.766Z,1007.01
2022-08-05T07:22:28.646Z,1007.14
2022-08-05T07:27:27.519Z,1007.44
2022-08-05T07:32:26.949Z,1007.55
2022-08-05T07:37:36.047Z,1007.52
2022-08-05T07:42:33.482Z,1007.56
2022-08-05T07:47:42.054Z,1007.37
2022-08-05T07:52:29.171Z,1007.42
2022-08-05T07:57:58.858Z,1007.56
2022-08-05T08:02:30.849Z,1007.35
2022-08-05T08:07:39.704Z,1007.38
2022-08-05T08:12:48.652Z,1007.33
2022-08-05T08:17:32.712Z,1007.50
2022-08-05T08:22:32.565Z,1007.17
2022-08-05T08:27:40.174Z,1007.05
2022-08-05T08:32:34.749Z,1007.25
2022-08-05T08:37:35.319Z,1007.05
2022-08-05T08:42:50.634Z,1007.54
2022-08-05T08:48:07.009Z,1007.68
2022-08-05T08:52:37.230Z,1007.71
2022-08-05T08:57:48.524Z,1007.81
2022-08-05T09:02:38.046Z,1007.72
2022-08-05T09:07:40.115Z,1007.96
2022-08-05T09:12:39.434Z,1008.17
2022-08-05T09:17:42.751Z,1008.06
2022-08-05T09:22:40.677Z,1008.16
2022-08-05T09:28:05.095Z,1008.05
2022-08-05T09:32:52.168Z,1008.11
2022-08-05T09:38:12.808Z,1008.06
2022-08-05T09:42:42.927Z,1007.90
2022-08-05T09:47:55.247Z,1008.04
2022-08-05T09:52:45.220Z,1008.09
2022-08-05T09:57:54.819Z,1007.79
2022-08-05T10:02:48.183Z,1007.61
2022-08-05T10:08:35.318Z,1007.38
2022-08-05T10:12:49.891Z,1007.06
2022-08-05T10:17:56.697Z,1007.30
2022-08-05T10:22:50.948Z,1007.65
2022-08-05T10:28:12.790Z,1007.77
2022-08-05T10:32:59.653Z,1007.72
2022-08-05T10:37:49.501Z,1008.06
2022-08-05T10:42:49.376Z,1008.23
2022-08-05T10:48:31.101Z,1008.17
2022-08-05T10:52:51.561Z,1007.90
2022-08-05T10:57:51.486Z,1007.90
2022-08-05T11:02:52.010Z,1007.99
2022-08-05T11:08:01.814Z,1007.93
2022-08-05T11:12:55.202Z,1007.79
2022-08-05T11:17:58.705Z,1007.87
2022-08-05T11:22:59.185Z,1007.94
2022-08-05T11:28:00.637Z,1008.04
2022-08-05T11:32:55.767Z,1007.97
2022-08-05T11:38:28.889Z,1008.10
2022-08-05T11:42:58.156Z,1008.14
2022-08-05T11:47:58.103Z,1008.13
2022-08-05T11:52:59.032Z,1008.10
2022-08-05T11:58:10.796Z,1008.14
2022-08-05T12:03:01.901Z,1008.13
2022-08-05T12:08:08.074Z,1008.09
2022-08-05T12:13:02.399Z,1007.94
2022-08-05T12:18:03.772Z,1008.01
2022-08-05T12:23:03.572Z,1008.05
2022-08-05T12:28:03.563Z,1008.16
2022-08-05T12:33:07.497Z,1007.99
2022-08-05T12:38:06.857Z,1008.02
2022-08-05T12:43:05.981Z,1008.00
2022-08-05T12:48:26.928Z,1007.98
2022-08-05T12:53:09.591Z,1008.12
2022-08-05T12:58:50.395Z,1008.11
2022-08-05T13:03:12.199Z,1008.08
2022-08-05T13:08:11.562Z,1008.06
2022-08-05T13:14:06.559Z,1008.05
2022-08-05T13:18:11.648Z,1008.02
2022-08-05T13:23:12.281Z,1008.17
2022-08-05T13:28:12.330Z,1008.19
2022-08-05T13:34:23.605Z,1008.14
2022-08-05T13:38:20.419Z,1008.10
2022-08-05T13:43:15.294Z,1008.10
2022-08-05T13:48:57.575Z,1008.09
2022-08-05T13:53:16.404Z,1008.06
2022-08-05T13:58:30.310Z,1008.07
2022-08-05T14:03:17.663Z,1008.04
2022-08-05T14:08:21.262Z,1008.12
2022-08-05T14:13:19.211Z,1008.12
2022-08-05T14:18:23.285Z,1008.16
2022-08-05T14:23:25.059Z,1008.21
2022-08-05T14:28:26.300Z,1008.31
2022-08-05T14:33:22.506Z,1008.33
2022-08-05T14:38:34.010Z,1008.44
2022-08-05T14:43:22.825Z,1008.45
2022-08-05T14:48:32.285Z,1008.49
2022-08-05T14:53:27.313Z,1008.61
2022-08-05T14:58:29.846Z,1008.50
2022-08-05T15:03:24.200Z,1008.53
2022-08-05T15:08:58.204Z,1008.49
2022-08-05T15:13:44.945Z,1008.43
2022-08-05T15:18:26.620Z,1008.49
2022-08-05T15:23:26.278Z,1008.52
2022-08-05T15:28:27.984Z,1008.69
2022-08-05T15:34:05.324Z,1008.69
2022-08-05T15:38:35.706Z,1008.78
2022-08-05T15:43:29.921Z,1008.66
2022-08-05T15:48:30.392Z,1008.72
2022-08-05T15:53:38.234Z,1008.78
2022-08-05T16:04:20.698Z,1008.87
2022-08-05T16:09:22.379Z,1009.02
2022-08-05T16:14:22.384Z,1009.23
2022-08-05T16:20:02.787Z,1009.28
2022-08-05T16:24:39.738Z,1009.37
2022-08-05T16:29:24.899Z,1009.31
2022-08-05T16:34:24.584Z,1009.45
2022-08-05T16:40:06.061Z,1009.55
2022-08-05T16:44:27.036Z,1009.67
2022-08-05T16:49:26.599Z,1009.93
2022-08-05T16:54:32.984Z,1009.98
2022-08-05T16:59:30.705Z,1009.88
2022-08-05T17:04:28.686Z,1009.90
2022-08-05T17:09:29.826Z,1009.99
2022-08-05T17:14:37.613Z,1010.13
2022-08-05T17:19:31.676Z,1010.23
2022-08-05T17:24:38.545Z,1010.49
2022-08-05T17:29:41.261Z,1010.58
2022-08-05T17:34:34.795Z,1010.84
2022-08-05T17:39:34.598Z,1011.03
2022-08-05T17:44:34.586Z,1010.96
2022-08-05T17:49:59.922Z,1011.05
2022-08-05T17:54:35.993Z,1011.11
2022-08-05T17:59:35.673Z,1011.22
2022-08-05T18:04:36.203Z,1011.28
2022-08-05T18:10:00.054Z,1011.34
2022-08-05T18:14:38.400Z,1011.42
2022-08-05T18:19:38.086Z,1011.50
2022-08-05T18:24:39.987Z,1011.50
2022-08-05T18:29:40.099Z,1011.70
2022-08-05T18:34:41.125Z,1011.77
2022-08-05T18:40:30.979Z,1011.87
2022-08-05T18:44:49.310Z,1011.83
2022-08-05T18:49:44.466Z,1011.87
2022-08-05T18:54:45.843Z,1011.93
2022-08-05T19:00:02.168Z,1012.03
2022-08-05T19:05:01.005Z,1012.02
2022-08-05T19:09:45.634Z,1012.11
2022-08-05T19:15:00.734Z,1012.30
2022-08-05T19:19:48.600Z,1012.43
2022-08-05T19:24:55.878Z,1012.45
2022-08-05T19:29:48.240Z,1012.50
2022-08-05T19:34:54.963Z,1012.51
2022-08-05T19:39:51.027Z,1012.67
2022-08-05T19:44:49.265Z,1012.73
2022-08-05T19:49:50.194Z,1012.73
2022-08-05T19:54:51.694Z,1012.85
2022-08-05T20:00:01.619Z,1012.92
2022-08-05T20:04:53.186Z,1013.00
2022-08-05T20:09:54.490Z,1012.94
2022-08-05T20:14:53.376Z,1012.89
2022-08-05T20:19:57.418Z,1012.98
2022-08-05T20:24:54.840Z,1013.06
2022-08-05T20:29:58.196Z,1013.19
2022-08-05T20:34:57.426Z,1013.29
2022-08-05T20:39:58.269Z,1013.42
2022-08-05T20:44:57.754Z,1013.55
2022-08-05T20:49:58.575Z,1013.69
2022-08-05T20:55:54.947Z,1013.80
2022-08-05T21:00:20.639Z,1013.89
2022-08-05T21:05:02.378Z,1013.92
2022-08-05T21:10:01.224Z,1014.02
2022-08-05T21:15:01.994Z,1014.07
2022-08-05T21:20:10.078Z,1014.12
2022-08-05T21:25:04.320Z,1014.16
2022-08-05T21:30:04.191Z,1014.25
2022-08-05T21:35:16.865Z,1014.21
2022-08-05T21:40:06.542Z,1014.23
2022-08-05T21:45:07.134Z,1014.24
2022-08-05T21:50:07.080Z,1014.21
2022-08-05T21:55:07.424Z,1014.17
2022-08-05T22:00:14.992Z,1014.22
2022-08-05T22:05:08.936Z,1014.34
2022-08-05T22:10:09.364Z,1014.45
2022-08-05T22:15:09.865Z,1014.23
2022-08-05T22:20:14.747Z,1014.24
2022-08-05T22:25:20.941Z,1014.47
2022-08-05T22:30:12.749Z,1014.53
2022-08-05T22:35:12.170Z,1014.53
2022-08-05T22:40:16.715Z,1014.57
2022-08-05T22:45:14.409Z,1014.58
2022-08-05T22:50:20.329Z,1014.69
2022-08-05T22:55:18.679Z,1014.76
2022-08-05T23:00:18.232Z,1014.78
2022-08-05T23:05:16.934Z,1014.71
2022-08-05T23:10:16.431Z,1014.82
2022-08-05T23:15:16.982Z,1014.87
2022-08-05T23:20:18.237Z,1014.90
2022-08-05T23:25:51.503Z,1014.88
2022-08-05T23:30:20.042Z,1014.91
2022-08-05T23:35:20.911Z,1014.85
2022-08-05T23:40:27.008Z,1015.01
2022-08-05T23:45:23.685Z,1015.13
2022-08-05T23:50:21.523Z,1015.21
2022-08-05T23:55:22.101Z,1015.15
